createdAt,value
2023-10-11T00:00:56.558Z,23.24
2023-10-11T00:03:02.256Z,23.24
2023-10-11T00:05:07.743Z,23.24
2023-10-11T00:07:13.284Z,23.24
2023-10-11T00:09:18.852Z,23.25
2023-10-11T00:11:24.583Z,23.28
2023-10-11T00:13:30.520Z,23.28
2023-10-11T00:15:36.163Z,23.27
2023-10-11T00:17:41.609Z,23.25
2023-10-11T00:19:47.514Z,23.27
2023-10-11T00:21:53.000Z,23.29
2023-10-11T00:23:58.616Z,23.29
2023-10-11T00:26:04.185Z,23.28
2023-10-11T00:28:09.639Z,23.28
2023-10-11T00:30:15.102Z,23.3
2023-10-11T00:32:20.509Z,23.28
2023-10-11T00:34:26.024Z,23.27
2023-10-11T00:36:31.600Z,23.27
2023-10-11T00:38:37.255Z,23.25
2023-10-11T00:40:42.580Z,23.25
2023-10-11T00:42:47.912Z,23.25
2023-10-11T00:44:53.368Z,23.25
2023-10-11T00:46:59.044Z,23.24
2023-10-11T00:49:05.985Z,23.22
2023-10-11T00:51:11.595Z,23.22
2023-10-11T00:53:17.062Z,23.21
2023-10-11T00:55:22.406Z,23.22
2023-10-11T00:57:27.836Z,23.22
2023-10-11T00:59:33.285Z,23.21
2023-10-11T01:01:38.887Z,23.2
2023-10-11T01:03:44.874Z,23.2
2023-10-11T01:05:50.947Z,23.21
2023-10-11T01:07:56.372Z,23.21
2023-10-11T01:10:02.115Z,23.21
2023-10-11T01:12:07.494Z,23.22
2023-10-11T01:14:13.209Z,23.21
2023-10-11T01:16:19.178Z,23.2
2023-10-11T01:18:24.939Z,23.21
2023-10-11T01:20:30.654Z,23.22
2023-10-11T01:22:36.104Z,23.2
2023-10-11T01:24:41.633Z,23.21
2023-10-11T01:26:47.128Z,23.22
2023-10-11T01:28:52.716Z,23.22
2023-10-11T01:30:58.154Z,23.21
2023-10-11T01:33:03.747Z,23.22
2023-10-11T01:35:09.238Z,23.21
2023-10-11T01:37:14.686Z,23.2
2023-10-11T01:39:20.223Z,23.2
2023-10-11T01:41:25.863Z,23.21
2023-10-11T01:43:31.110Z,23.21
2023-10-11T01:45:36.653Z,23.2
2023-10-11T01:47:42.346Z,23.21
2023-10-11T01:49:47.955Z,23.21
2023-10-11T01:51:53.689Z,23.21
2023-10-11T01:53:59.270Z,23.2
2023-10-11T01:56:40.389Z,23.2
2023-10-11T01:58:46.160Z,23.21
2023-10-11T02:00:51.500Z,23.22
2023-10-11T02:02:56.955Z,23.21
2023-10-11T02:05:02.704Z,23.22
2023-10-11T02:07:08.231Z,23.22
2023-10-11T02:09:13.711Z,23.22
2023-10-11T02:11:19.511Z,23.22
2023-10-11T02:13:24.849Z,23.2
2023-10-11T02:15:30.184Z,23.22
2023-10-11T02:17:35.574Z,23.21
2023-10-11T02:19:41.078Z,23.21
2023-10-11T02:21:46.514Z,23.21
2023-10-11T02:23:51.968Z,23.2
2023-10-11T02:25:57.485Z,23.2
2023-10-11T02:28:02.941Z,23.2
2023-10-11T02:30:08.346Z,23.18
2023-10-11T02:32:13.919Z,23.18
2023-10-11T02:34:19.461Z,23.16
2023-10-11T02:36:25.006Z,23.16
2023-10-11T02:38:30.441Z,23.17
2023-10-11T02:40:35.883Z,23.16
2023-10-11T02:42:41.319Z,23.15
2023-10-11T02:44:46.575Z,23.15
2023-10-11T02:46:52.212Z,23.13
2023-10-11T02:48:57.637Z,23.15
2023-10-11T02:51:03.011Z,23.14
2023-10-11T02:53:08.727Z,23.15
2023-10-11T02:55:14.077Z,23.15
2023-10-11T02:57:20.037Z,23.16
2023-10-11T02:59:26.003Z,23.16
2023-10-11T03:01:31.430Z,23.16
2023-10-11T03:03:37.214Z,23.16
2023-10-11T03:05:43.189Z,23.17
2023-10-11T03:07:48.546Z,23.17
2023-10-11T03:09:53.998Z,23.17
2023-10-11T03:12:00.279Z,23.18
2023-10-11T03:14:05.891Z,23.18
2023-10-11T03:16:11.150Z,23.17
2023-10-11T03:18:16.733Z,23.16
2023-10-11T03:20:22.738Z,23.17
2023-10-11T03:22:28.274Z,23.17
2023-10-11T03:24:33.820Z,23.17
2023-10-11T03:26:39.254Z,23.17
2023-10-11T03:28:44.792Z,23.19
2023-10-11T03:30:50.357Z,23.2
2023-10-11T03:32:56.004Z,23.21
2023-10-11T03:35:01.736Z,23.2
2023-10-11T03:37:07.077Z,23.2
2023-10-11T03:39:12.472Z,23.2
2023-10-11T03:41:17.853Z,23.2
2023-10-11T03:43:23.494Z,23.2
2023-10-11T03:45:29.314Z,23.23
2023-10-11T03:47:34.806Z,23.22
2023-10-11T03:49:40.427Z,23.24
2023-10-11T03:51:45.662Z,23.24
2023-10-11T03:53:51.004Z,23.25
2023-10-11T03:55:56.650Z,23.26
2023-10-11T03:58:02.284Z,23.27
2023-10-11T04:00:08.060Z,23.26
2023-10-11T04:02:13.779Z,23.27
2023-10-11T04:04:19.349Z,23.28
2023-10-11T04:06:25.410Z,23.27
2023-10-11T04:08:30.714Z,23.29
2023-10-11T04:10:36.268Z,23.28
2023-10-11T04:12:41.611Z,23.28
2023-10-11T04:14:47.096Z,23.29
2023-10-11T04:16:52.478Z,23.3
2023-10-11T04:18:57.765Z,23.29
2023-10-11T04:21:03.679Z,23.31
2023-10-11T04:23:09.106Z,23.31
2023-10-11T04:25:14.554Z,23.3
2023-10-11T04:27:20.160Z,23.3
2023-10-11T04:29:25.731Z,23.3
2023-10-11T04:31:31.284Z,23.32
2023-10-11T04:33:36.845Z,23.33
2023-10-11T04:35:42.572Z,23.33
2023-10-11T04:37:48.008Z,23.34
2023-10-11T04:39:53.351Z,23.33
2023-10-11T04:41:58.766Z,23.38
2023-10-11T04:44:04.430Z,23.43
2023-10-11T04:46:09.939Z,23.49
2023-10-11T04:48:15.278Z,23.53
2023-10-11T04:50:21.071Z,23.57
2023-10-11T04:52:26.570Z,23.61
2023-10-11T04:54:31.947Z,23.63
2023-10-11T04:56:37.411Z,23.67
2023-10-11T04:58:42.721Z,23.68
2023-10-11T05:00:48.330Z,23.7
2023-10-11T05:02:53.818Z,23.72
2023-10-11T05:04:59.974Z,23.73
2023-10-11T05:07:05.546Z,23.74
2023-10-11T05:09:11.070Z,23.76
2023-10-11T05:11:16.588Z,23.77
2023-10-11T05:13:21.822Z,23.77
2023-10-11T05:15:27.283Z,23.78
2023-10-11T05:17:32.732Z,23.8
2023-10-11T05:19:38.394Z,23.84
2023-10-11T05:21:46.023Z,23.86
2023-10-11T05:24:07.400Z,23.9
2023-10-11T05:26:13.003Z,23.94
2023-10-11T05:28:18.753Z,23.95
2023-10-11T05:30:24.152Z,23.93
2023-10-11T05:32:29.761Z,23.94
2023-10-11T05:34:35.304Z,23.93
2023-10-11T05:36:40.818Z,23.93
2023-10-11T05:38:46.381Z,23.91
2023-10-11T05:40:52.017Z,23.89
2023-10-11T05:42:57.451Z,23.87
2023-10-11T05:45:03.131Z,23.83
2023-10-11T05:47:08.838Z,23.78
2023-10-11T05:49:14.204Z,23.77
2023-10-11T05:51:20.147Z,23.76
2023-10-11T05:53:25.688Z,23.76
2023-10-11T05:55:31.390Z,23.76
2023-10-11T05:57:36.986Z,23.76
2023-10-11T05:59:42.405Z,23.77
2023-10-11T06:01:47.766Z,23.79
2023-10-11T06:03:53.395Z,23.78
2023-10-11T06:05:59.296Z,23.77
2023-10-11T06:08:05.121Z,23.76
2023-10-11T06:10:10.857Z,23.75
2023-10-11T06:12:16.415Z,23.74
2023-10-11T06:14:22.110Z,23.76
2023-10-11T06:16:29.555Z,23.77
2023-10-11T06:18:35.580Z,23.81
2023-10-11T06:20:41.216Z,23.83
2023-10-11T06:22:46.753Z,23.87
2023-10-11T06:24:53.023Z,23.88
2023-10-11T06:26:58.478Z,23.89
2023-10-11T06:29:04.105Z,23.9
2023-10-11T06:31:09.966Z,23.9
2023-10-11T06:33:15.686Z,23.92
2023-10-11T06:35:21.445Z,23.92
2023-10-11T06:37:26.890Z,23.94
2023-10-11T06:39:32.349Z,23.95
2023-10-11T06:41:37.973Z,23.96
2023-10-11T06:43:43.303Z,23.97
2023-10-11T06:45:49.054Z,23.98
2023-10-11T06:47:54.670Z,23.99
2023-10-11T06:50:00.334Z,23.99
2023-10-11T06:52:05.727Z,24
2023-10-11T06:54:11.256Z,24.01
2023-10-11T06:56:16.666Z,24.02
2023-10-11T06:58:22.242Z,24.02
2023-10-11T07:00:27.799Z,24.04
2023-10-11T07:02:34.148Z,24.04
2023-10-11T07:04:39.649Z,24.04
2023-10-11T07:06:45.302Z,24.04
2023-10-11T07:08:50.856Z,24.03
2023-10-11T07:10:56.591Z,24.03
2023-10-11T07:13:02.134Z,24.05
2023-10-11T07:15:08.002Z,24.05
2023-10-11T07:17:13.622Z,24.04
2023-10-11T07:19:19.063Z,24.03
2023-10-11T07:21:24.642Z,24.04
2023-10-11T07:23:30.657Z,24.04
2023-10-11T07:25:36.078Z,24.04
2023-10-11T07:27:41.637Z,24.05
2023-10-11T07:29:50.771Z,24.08
2023-10-11T07:31:57.057Z,24.09
2023-10-11T07:34:02.944Z,24.09
2023-10-11T07:36:08.741Z,24.08
2023-10-11T07:38:14.483Z,24.08
2023-10-11T07:40:19.926Z,24.07
2023-10-11T07:42:25.221Z,24.08
2023-10-11T07:44:30.662Z,24.09
2023-10-11T07:46:35.928Z,24.11
2023-10-11T07:48:41.684Z,24.12
2023-10-11T07:50:50.310Z,24.14
2023-10-11T07:52:55.734Z,24.15
2023-10-11T07:55:02.198Z,24.15
2023-10-11T07:57:07.669Z,24.14
2023-10-11T07:59:13.391Z,24.1
2023-10-11T08:01:21.946Z,24.08
2023-10-11T08:03:27.512Z,24.08
2023-10-11T08:05:33.605Z,24.12
2023-10-11T08:07:42.341Z,24.14
2023-10-11T08:09:47.825Z,24.11
2023-10-11T08:11:53.463Z,24.11
2023-10-11T08:14:00.376Z,24.09
2023-10-11T08:16:05.961Z,24.06
2023-10-11T08:18:11.555Z,24.06
2023-10-11T08:20:17.312Z,24.05
2023-10-11T08:22:23.699Z,24.04
2023-10-11T08:24:29.385Z,24.05
2023-10-11T08:26:35.121Z,24.07
2023-10-11T08:28:40.634Z,24.08
2023-10-11T08:30:46.526Z,24.09
2023-10-11T08:32:55.262Z,24.1
2023-10-11T08:35:00.718Z,24.1
2023-10-11T08:37:06.191Z,24.13
2023-10-11T08:39:12.069Z,24.15
2023-10-11T08:41:17.652Z,24.14
2023-10-11T08:43:23.221Z,24.13
2023-10-11T08:45:28.713Z,24.13
2023-10-11T08:47:34.409Z,24.12
2023-10-11T08:49:39.824Z,24.09
2023-10-11T08:51:45.368Z,24.08
2023-10-11T08:53:51.145Z,24.07
2023-10-11T08:55:56.756Z,24.06
2023-10-11T08:58:02.515Z,24.07
2023-10-11T09:00:08.438Z,24.05
2023-10-11T09:02:17.605Z,24.03
2023-10-11T09:04:23.214Z,24.05
2023-10-11T09:06:29.003Z,24.08
2023-10-11T09:08:34.978Z,24.08
2023-10-11T09:10:41.002Z,24.09
2023-10-11T09:12:46.537Z,24.06
2023-10-11T09:14:51.786Z,24.05
2023-10-11T09:16:57.534Z,24.05
2023-10-11T09:19:05.308Z,24.04
2023-10-11T09:21:11.086Z,24.05
2023-10-11T09:23:16.500Z,24.05
2023-10-11T09:25:22.070Z,24.05
2023-10-11T09:27:27.606Z,24.09
2023-10-11T09:29:32.922Z,24.13
2023-10-11T09:31:38.372Z,24.15
2023-10-11T09:33:44.023Z,24.17
2023-10-11T09:35:49.572Z,24.18
2023-10-11T09:37:55.191Z,24.18
2023-10-11T09:40:00.573Z,24.18
2023-10-11T09:42:06.126Z,24.17
2023-10-11T09:44:11.650Z,24.15
2023-10-11T09:46:17.924Z,24.14
2023-10-11T09:48:23.642Z,24.13
2023-10-11T09:50:29.617Z,24.13
2023-10-11T09:52:34.927Z,24.14
2023-10-11T09:54:40.801Z,24.15
2023-10-11T09:56:46.342Z,24.15
2023-10-11T09:58:51.854Z,24.17
2023-10-11T10:00:57.318Z,24.15
2023-10-11T10:03:03.087Z,24.15
2023-10-11T10:05:09.399Z,24.14
2023-10-11T10:07:14.744Z,24.16
2023-10-11T10:09:20.617Z,24.17
2023-10-11T10:11:26.646Z,24.17
2023-10-11T10:13:32.198Z,24.16
2023-10-11T10:15:37.774Z,24.15
2023-10-11T10:17:46.190Z,24.17
2023-10-11T10:19:51.588Z,24.17
2023-10-11T10:21:57.131Z,24.17
2023-10-11T10:24:03.030Z,24.17
2023-10-11T10:26:08.665Z,24.17
2023-10-11T10:28:14.182Z,24.16
2023-10-11T10:30:19.642Z,24.16
2023-10-11T10:32:25.342Z,24.16
2023-10-11T10:34:31.064Z,24.16
2023-10-11T10:36:36.662Z,24.17
2023-10-11T10:38:42.179Z,24.17
2023-10-11T10:40:47.616Z,24.16
2023-10-11T10:42:52.849Z,24.15
2023-10-11T10:44:59.879Z,24.15
2023-10-11T10:47:05.305Z,24.17
2023-10-11T10:49:11.892Z,24.2
2023-10-11T10:51:17.306Z,24.24
2023-10-11T10:53:22.927Z,24.28
2023-10-11T10:55:28.567Z,24.3
2023-10-11T10:57:33.946Z,24.31
2023-10-11T10:59:39.864Z,24.33
2023-10-11T11:01:45.297Z,24.36
2023-10-11T11:03:50.963Z,24.39
2023-10-11T11:05:57.064Z,24.42
2023-10-11T11:08:02.846Z,24.44
2023-10-11T11:10:08.614Z,24.47
2023-10-11T11:12:15.475Z,24.49
2023-10-11T11:14:23.487Z,24.52
2023-10-11T11:16:29.038Z,24.53
2023-10-11T11:18:34.724Z,24.54
2023-10-11T11:20:40.352Z,24.55
2023-10-11T11:22:48.934Z,24.55
2023-10-11T11:24:54.484Z,24.55
2023-10-11T11:27:00.241Z,24.56
2023-10-11T11:29:05.858Z,24.56
2023-10-11T11:31:11.210Z,24.57
2023-10-11T11:33:16.777Z,24.58
2023-10-11T11:35:24.941Z,24.59
2023-10-11T11:37:30.484Z,24.6
2023-10-11T11:39:35.839Z,24.61
2023-10-11T11:41:41.369Z,24.63
2023-10-11T11:43:46.812Z,24.65
2023-10-11T11:45:54.401Z,24.65
2023-10-11T11:47:59.976Z,24.66
2023-10-11T11:50:06.008Z,24.66
2023-10-11T11:52:11.591Z,24.68
2023-10-11T11:54:17.191Z,24.68
2023-10-11T11:56:23.855Z,24.7
2023-10-11T11:58:29.290Z,24.71
2023-10-11T12:00:38.415Z,24.7
2023-10-11T12:02:44.450Z,24.68
2023-10-11T12:04:50.281Z,24.7
2023-10-11T12:06:56.991Z,24.73
2023-10-11T12:09:02.694Z,24.75
2023-10-11T12:11:10.752Z,24.75
2023-10-11T12:13:21.510Z,24.75
2023-10-11T12:15:27.024Z,24.75
2023-10-11T12:17:32.679Z,24.76
2023-10-11T12:19:38.446Z,24.76
2023-10-11T12:21:44.136Z,24.77
2023-10-11T12:23:50.523Z,24.78
2023-10-11T12:25:56.199Z,24.77
2023-10-11T12:28:01.735Z,24.79
2023-10-11T12:30:09.086Z,24.8
2023-10-11T12:32:15.385Z,24.81
2023-10-11T12:34:21.141Z,24.82
2023-10-11T12:36:26.900Z,24.82
2023-10-11T12:38:33.135Z,24.86
2023-10-11T12:40:38.573Z,24.85
2023-10-11T12:42:44.230Z,24.85
2023-10-11T12:44:50.196Z,24.85
2023-10-11T12:46:55.965Z,24.87
2023-10-11T12:49:01.682Z,24.86
2023-10-11T12:51:07.337Z,24.86
2023-10-11T12:53:14.284Z,24.88
2023-10-11T12:55:19.911Z,24.89
2023-10-11T12:57:25.541Z,24.91
2023-10-11T12:59:32.663Z,24.92
2023-10-11T13:01:38.519Z,24.94
2023-10-11T13:03:44.620Z,24.96
2023-10-11T13:05:50.532Z,24.96
2023-10-11T13:07:56.374Z,24.95
2023-10-11T13:10:05.309Z,24.93
2023-10-11T13:12:11.038Z,24.96
2023-10-11T13:14:17.264Z,24.99
2023-10-11T13:16:23.743Z,25.01
2023-10-11T13:18:29.704Z,25.01
2023-10-11T13:20:35.487Z,25
2023-10-11T13:22:41.144Z,25.02
2023-10-11T13:24:46.599Z,25.03
2023-10-11T13:26:52.208Z,25.04
2023-10-11T13:28:57.652Z,25.05
2023-10-11T13:31:05.459Z,25.07
2023-10-11T13:33:12.887Z,25.06
2023-10-11T13:35:18.598Z,25.06
2023-10-11T13:37:24.134Z,25.06
2023-10-11T13:39:29.640Z,25.04
2023-10-11T13:41:35.132Z,25.03
2023-10-11T13:43:40.442Z,25.02
2023-10-11T13:45:46.361Z,25.04
2023-10-11T13:47:52.148Z,25.05
2023-10-11T13:49:57.489Z,25.04
2023-10-11T13:52:02.920Z,25.03
2023-10-11T13:54:08.905Z,25.04
2023-10-11T13:56:14.530Z,25.03
2023-10-11T13:58:20.476Z,25.02
2023-10-11T14:00:26.020Z,25
2023-10-11T14:02:32.026Z,25
2023-10-11T14:04:38.753Z,24.98
2023-10-11T14:06:45.188Z,25
2023-10-11T14:08:50.712Z,25
2023-10-11T14:10:56.607Z,25.02
2023-10-11T14:13:02.958Z,25.01
2023-10-11T14:15:08.299Z,25
2023-10-11T14:17:13.844Z,25.01
2023-10-11T14:19:19.440Z,25.01
2023-10-11T14:21:24.995Z,25
2023-10-11T14:23:30.483Z,25
2023-10-11T14:25:35.818Z,25
2023-10-11T14:27:41.338Z,24.99
2023-10-11T14:29:46.806Z,25
2023-10-11T14:31:54.285Z,25
2023-10-11T14:33:59.728Z,25
2023-10-11T14:36:05.396Z,25
2023-10-11T14:38:10.804Z,25
2023-10-11T14:40:16.497Z,25.01
2023-10-11T14:42:25.297Z,25.02
2023-10-11T14:44:30.813Z,25.01
2023-10-11T14:46:36.096Z,24.99
2023-10-11T14:48:41.696Z,25
2023-10-11T14:50:47.143Z,24.99
2023-10-11T14:52:52.791Z,24.99
2023-10-11T14:54:58.537Z,24.98
2023-10-11T14:57:05.523Z,24.97
2023-10-11T14:59:13.103Z,25.01
2023-10-11T15:01:18.861Z,25.02
2023-10-11T15:03:24.616Z,25.03
2023-10-11T15:05:30.174Z,25.06
2023-10-11T15:07:35.364Z,25.06
2023-10-11T15:09:40.789Z,25.07
2023-10-11T15:11:46.361Z,25.08
2023-10-11T15:13:52.104Z,25.09
2023-10-11T15:15:57.489Z,25.1
2023-10-11T15:18:03.781Z,25.1
2023-10-11T15:20:09.748Z,25.11
2023-10-11T15:22:15.282Z,25.11
2023-10-11T15:24:20.924Z,25.12
2023-10-11T15:26:26.556Z,25.12
2023-10-11T15:28:32.125Z,25.11
2023-10-11T15:30:37.499Z,25.13
2023-10-11T15:32:43.318Z,25.13
2023-10-11T15:34:48.750Z,25.15
2023-10-11T15:36:54.271Z,25.15
2023-10-11T15:38:59.618Z,25.16
2023-10-11T15:41:05.070Z,25.15
2023-10-11T15:43:10.403Z,25.16
2023-10-11T15:45:15.863Z,25.17
2023-10-11T15:47:21.793Z,25.16
2023-10-11T15:49:29.372Z,25.16
2023-10-11T15:51:35.085Z,25.15
2023-10-11T15:53:40.699Z,25.18
2023-10-11T15:55:46.127Z,25.18
2023-10-11T15:57:51.559Z,25.18
2023-10-11T15:59:56.996Z,25.17
2023-10-11T16:02:02.362Z,25.16
2023-10-11T16:04:08.160Z,25.17
2023-10-11T16:06:14.044Z,25.16
2023-10-11T16:08:19.783Z,25.14
2023-10-11T16:10:25.127Z,25.15
2023-10-11T16:12:30.695Z,25.15
2023-10-11T16:14:36.203Z,25.14
2023-10-11T16:16:41.655Z,25.13
2023-10-11T16:18:47.525Z,25.11
2023-10-11T16:20:53.451Z,25.09
2023-10-11T16:22:59.097Z,25.1
2023-10-11T16:25:04.527Z,25.1
2023-10-11T16:27:10.165Z,25.07
2023-10-11T16:29:16.136Z,25.05
2023-10-11T16:31:21.474Z,25.07
2023-10-11T16:33:27.244Z,25.09
2023-10-11T16:35:32.549Z,25.11
2023-10-11T16:37:38.217Z,25.12
2023-10-11T16:39:43.552Z,25.11
2023-10-11T16:41:49.294Z,25.12
2023-10-11T16:43:54.853Z,25.14
2023-10-11T16:46:00.329Z,25.16
2023-10-11T16:48:30.802Z,25.15
2023-10-11T16:50:36.225Z,25.16
2023-10-11T16:52:41.569Z,25.15
2023-10-11T16:54:47.096Z,25.18
2023-10-11T16:56:52.665Z,25.2
2023-10-11T16:58:58.095Z,25.22
2023-10-11T17:01:03.644Z,25.22
2023-10-11T17:03:09.194Z,25.24
2023-10-11T17:05:15.133Z,25.24
2023-10-11T17:07:20.786Z,25.24
2023-10-11T17:09:26.133Z,25.24
2023-10-11T17:11:31.455Z,25.24
2023-10-11T17:13:36.890Z,25.27
2023-10-11T17:15:42.323Z,25.25
2023-10-11T17:17:48.120Z,25.25
2023-10-11T17:19:53.528Z,25.23
2023-10-11T17:22:00.083Z,25.22
2023-10-11T17:24:05.630Z,25.22
2023-10-11T17:26:14.731Z,25.21
2023-10-11T17:28:21.218Z,25.21
2023-10-11T17:30:27.319Z,25.19
2023-10-11T17:32:35.755Z,25.19
2023-10-11T17:34:41.232Z,25.18
2023-10-11T17:36:47.206Z,25.17
2023-10-11T17:38:52.829Z,25.16
2023-10-11T17:40:58.174Z,25.16
2023-10-11T17:43:03.611Z,25.16
2023-10-11T17:45:08.968Z,25.21
2023-10-11T17:47:14.698Z,25.21
2023-10-11T17:49:20.863Z,25.23
2023-10-11T17:51:26.307Z,25.23
2023-10-11T17:53:32.050Z,25.24
2023-10-11T17:55:37.472Z,25.24
2023-10-11T17:57:43.071Z,25.23
2023-10-11T17:59:48.560Z,25.2
2023-10-11T18:01:54.006Z,25.23
2023-10-11T18:03:59.390Z,25.22
2023-10-11T18:06:05.300Z,25.23
2023-10-11T18:08:10.845Z,25.23
2023-10-11T18:10:16.587Z,25.2
2023-10-11T18:12:22.252Z,25.19
2023-10-11T18:14:28.082Z,25.17
2023-10-11T18:16:33.439Z,25.21
2023-10-11T18:18:38.727Z,25.18
2023-10-11T18:20:44.194Z,25.18
2023-10-11T18:22:49.551Z,25.21
2023-10-11T18:24:54.911Z,25.22
2023-10-11T18:27:00.415Z,25.23
2023-10-11T18:29:05.755Z,25.24
2023-10-11T18:31:13.589Z,25.23
2023-10-11T18:33:19.038Z,25.2
2023-10-11T18:35:24.741Z,25.17
2023-10-11T18:37:30.190Z,25.16
2023-10-11T18:39:35.653Z,25.14
2023-10-11T18:41:41.159Z,25.13
2023-10-11T18:43:46.791Z,25.12
2023-10-11T18:45:52.388Z,25.1
2023-10-11T18:47:58.247Z,25.11
2023-10-11T18:50:04.026Z,25.13
2023-10-11T18:52:09.774Z,25.13
2023-10-11T18:54:15.455Z,25.13
2023-10-11T18:56:21.361Z,25.14
2023-10-11T18:58:26.807Z,25.16
2023-10-11T19:00:32.192Z,25.16
2023-10-11T19:02:37.940Z,25.14
2023-10-11T19:04:43.566Z,25.14
2023-10-11T19:06:49.186Z,25.17
2023-10-11T19:08:55.149Z,25.2
2023-10-11T19:11:00.780Z,25.18
2023-10-11T19:13:06.322Z,25.17
2023-10-11T19:15:11.764Z,25.17
2023-10-11T19:17:17.434Z,25.18
2023-10-11T19:19:22.854Z,25.16
2023-10-11T19:21:28.287Z,25.15
2023-10-11T19:23:33.741Z,25.13
2023-10-11T19:25:39.071Z,25.13
2023-10-11T19:27:44.649Z,25.13
2023-10-11T19:29:50.359Z,25.16
2023-10-11T19:31:55.896Z,25.18
2023-10-11T19:34:01.239Z,25.2
2023-10-11T19:36:06.471Z,25.23
2023-10-11T19:38:11.931Z,25.25
2023-10-11T19:40:18.878Z,25.24
2023-10-11T19:42:24.682Z,25.24
2023-10-11T19:44:30.175Z,25.22
2023-10-11T19:46:35.509Z,25.2
2023-10-11T19:48:41.353Z,25.16
2023-10-11T19:50:47.048Z,25.17
2023-10-11T19:52:52.571Z,25.17
2023-10-11T19:54:57.962Z,25.19
2023-10-11T19:57:03.434Z,25.16
2023-10-11T19:59:08.679Z,25.15
2023-10-11T20:01:14.141Z,25.14
2023-10-11T20:03:19.637Z,25.16
2023-10-11T20:05:25.301Z,25.17
2023-10-11T20:07:30.642Z,25.18
2023-10-11T20:09:36.018Z,25.19
2023-10-11T20:11:41.520Z,25.18
2023-10-11T20:13:46.855Z,25.18
2023-10-11T20:15:52.266Z,25.18
2023-10-11T20:17:57.981Z,25.17
2023-10-11T20:20:03.494Z,25.17
2023-10-11T20:22:08.923Z,25.16
2023-10-11T20:24:14.184Z,25.17
2023-10-11T20:26:19.744Z,25.17
2023-10-11T20:28:25.153Z,25.18
2023-10-11T20:30:30.506Z,25.2
2023-10-11T20:32:35.946Z,25.19
2023-10-11T20:34:41.580Z,25.2
2023-10-11T20:36:47.467Z,25.2
2023-10-11T20:38:53.172Z,25.2
2023-10-11T20:40:58.617Z,25.2
2023-10-11T20:43:04.165Z,25.21
2023-10-11T20:45:09.610Z,25.2
2023-10-11T20:47:14.929Z,25.2
2023-10-11T20:49:20.312Z,25.2
2023-10-11T20:51:25.603Z,25.21
2023-10-11T20:53:30.981Z,25.19
2023-10-11T20:55:36.414Z,25.18
2023-10-11T20:57:41.691Z,25.18
2023-10-11T20:59:47.103Z,25.16
2023-10-11T21:01:52.637Z,25.16
2023-10-11T21:03:58.121Z,25.13
2023-10-11T21:06:03.624Z,25.15
2023-10-11T21:08:09.382Z,25.17
2023-10-11T21:10:15.051Z,25.16
2023-10-11T21:12:20.356Z,25.16
2023-10-11T21:14:26.067Z,25.18
2023-10-11T21:16:31.678Z,25.2
2023-10-11T21:18:37.897Z,25.18
2023-10-11T21:20:45.741Z,25.2
2023-10-11T21:22:51.539Z,25.22
2023-10-11T21:24:56.903Z,25.22
2023-10-11T21:27:02.645Z,25.21
2023-10-11T21:29:07.947Z,25.21
2023-10-11T21:31:13.671Z,25.21
2023-10-11T21:33:19.760Z,25.23
2023-10-11T21:35:25.327Z,25.24
2023-10-11T21:37:30.750Z,25.24
2023-10-11T21:39:36.007Z,25.25
2023-10-11T21:41:41.685Z,25.25
2023-10-11T21:43:47.073Z,25.24
2023-10-11T21:45:52.427Z,25.23
2023-10-11T21:47:58.005Z,25.23
2023-10-11T21:50:03.408Z,25.24
2023-10-11T21:52:08.715Z,25.22
2023-10-11T21:54:14.264Z,25.22
2023-10-11T21:56:19.932Z,25.22
2023-10-11T21:58:25.274Z,25.22
2023-10-11T22:00:30.627Z,25.21
2023-10-11T22:02:38.626Z,25.21
2023-10-11T22:04:44.148Z,25.2
2023-10-11T22:06:49.491Z,25.19
2023-10-11T22:08:55.021Z,25.19
2023-10-11T22:11:00.463Z,25.19
2023-10-11T22:13:05.810Z,25.18
2023-10-11T22:15:11.151Z,25.18
2023-10-11T22:17:16.598Z,25.16
2023-10-11T22:19:21.942Z,25.14
2023-10-11T22:21:27.382Z,25.14
2023-10-11T22:23:32.802Z,25.14
2023-10-11T22:25:38.242Z,25.13
2023-10-11T22:27:43.678Z,25.11
2023-10-11T22:29:49.120Z,25.1
2023-10-11T22:31:54.610Z,25.09
2023-10-11T22:34:00.079Z,25.07
2023-10-11T22:36:05.554Z,25.05
2023-10-11T22:38:10.891Z,25.04
2023-10-11T22:40:16.335Z,25.04
2023-10-11T22:42:21.994Z,25.02
2023-10-11T22:44:27.615Z,25.03
2023-10-11T22:46:33.077Z,25.03
2023-10-11T22:48:38.628Z,25.03
2023-10-11T22:50:44.148Z,25.03
2023-10-11T22:52:49.589Z,25.02
2023-10-11T22:54:55.453Z,24.99
2023-10-11T22:57:01.173Z,25
2023-10-11T22:59:06.512Z,25
2023-10-11T23:01:11.745Z,25.01
2023-10-11T23:03:17.282Z,25.01
2023-10-11T23:05:23.559Z,25.01
2023-10-11T23:07:28.890Z,25.03
2023-10-11T23:09:34.469Z,25.02
2023-10-11T23:11:39.989Z,25.02
2023-10-11T23:13:45.318Z,25.02
2023-10-11T23:15:50.708Z,25.01
2023-10-11T23:17:59.222Z,25
2023-10-11T23:20:04.925Z,25
2023-10-11T23:22:10.263Z,24.99
2023-10-11T23:24:15.701Z,25.01
2023-10-11T23:26:21.758Z,25.01
2023-10-11T23:28:27.087Z,25.02
2023-10-11T23:30:32.614Z,25
2023-10-11T23:32:38.281Z,24.99
2023-10-11T23:34:43.752Z,24.98
2023-10-11T23:36:49.139Z,24.98
2023-10-11T23:38:54.592Z,24.98
2023-10-11T23:40:59.835Z,24.98
2023-10-11T23:43:05.375Z,24.97
2023-10-11T23:45:10.623Z,24.98
2023-10-11T23:47:16.051Z,24.99
2023-10-11T23:49:21.411Z,24.99
2023-10-11T23:51:26.965Z,24.98
2023-10-11T23:53:32.378Z,24.97
2023-10-11T23:55:37.849Z,24.98
2023-10-11T23:57:43.284Z,24.98
2023-10-11T23:59:48.820Z,24.97
